createdAt,value
2018-12-10T00:00:54.080Z,63.50
2018-12-10T00:03:58.589Z,62.77
2018-12-10T00:07:02.497Z,62.87
2018-12-10T00:10:04.437Z,62.10
2018-12-10T00:13:06.292Z,61.62
2018-12-10T00:16:08.225Z,61.82
2018-12-10T00:19:10.061Z,62.24
2018-12-10T00:22:11.916Z,61.34
2018-12-10T00:25:13.769Z,61.78
2018-12-10T00:28:15.613Z,62.63
2018-12-10T00:31:17.245Z,62.54
2018-12-10T00:34:19.100Z,62.34
2018-12-10T00:37:20.946Z,62.50
2018-12-10T00:40:22.796Z,62.24
2018-12-10T00:43:24.643Z,62.30
2018-12-10T00:46:26.488Z,61.64
2018-12-10T00:49:28.239Z,61.34
2018-12-10T00:52:30.183Z,61.39
2018-12-10T00:55:32.127Z,61.14
2018-12-10T00:58:33.976Z,61.88
2018-12-10T01:01:35.819Z,62.94
2018-12-10T01:04:37.666Z,70.34
2018-12-10T01:07:39.533Z,72.54
2018-12-10T01:10:41.365Z,73.68
2018-12-10T01:13:43.209Z,74.04
2018-12-10T01:16:45.057Z,74.21
2018-12-10T01:19:46.897Z,73.70
2018-12-10T01:22:48.757Z,73.46
2018-12-10T01:25:50.481Z,72.56
2018-12-10T01:28:52.334Z,80.87
2018-12-10T01:31:54.186Z,81.87
2018-12-10T01:34:56.026Z,82.03
2018-12-10T01:37:58.083Z,82.17
2018-12-10T01:40:59.936Z,82.60
2018-12-10T01:44:01.773Z,82.59
2018-12-10T01:47:04.750Z,82.54
2018-12-10T01:50:06.799Z,82.68
2018-12-10T01:53:08.849Z,82.74
2018-12-10T01:56:10.698Z,82.63
2018-12-10T01:59:12.544Z,82.60
2018-12-10T02:02:14.275Z,82.79
2018-12-10T02:05:16.136Z,82.68
2018-12-10T02:08:17.976Z,81.60
2018-12-10T02:11:19.930Z,81.37
2018-12-10T02:14:21.876Z,81.39
2018-12-10T02:17:23.717Z,81.07
2018-12-10T02:20:25.567Z,81.10
2018-12-10T02:23:27.414Z,81.32
2018-12-10T02:26:29.369Z,81.22
2018-12-10T02:29:31.106Z,81.05
2018-12-10T02:32:32.955Z,80.74
2018-12-10T02:35:35.018Z,80.73
2018-12-10T02:38:36.853Z,80.44
2018-12-10T02:41:38.588Z,80.09
2018-12-10T02:44:40.434Z,79.79
2018-12-10T02:47:42.299Z,79.13
2018-12-10T02:50:44.344Z,74.74
2018-12-10T02:53:46.500Z,73.03
2018-12-10T02:56:48.231Z,72.72
2018-12-10T02:59:50.000Z,72.62
2018-12-10T03:02:54.101Z,72.40
2018-12-10T03:05:55.931Z,72.62
2018-12-10T03:08:57.782Z,72.52
2018-12-10T03:11:59.928Z,72.70
2018-12-10T03:15:01.562Z,72.27
2018-12-10T03:18:03.418Z,72.16
2018-12-10T03:21:05.261Z,72.62
2018-12-10T03:24:07.216Z,72.46
2018-12-10T03:27:08.945Z,71.40
2018-12-10T03:30:11.010Z,71.63
2018-12-10T03:33:13.062Z,71.17
2018-12-10T03:36:15.106Z,71.19
2018-12-10T03:39:17.173Z,70.67
2018-12-10T03:42:19.006Z,70.48
2018-12-10T03:45:20.863Z,69.75
2018-12-10T03:48:22.799Z,69.10
2018-12-10T03:51:24.746Z,68.89
2018-12-10T03:54:26.599Z,68.83
2018-12-10T03:57:28.334Z,68.88
2018-12-10T04:00:30.078Z,68.72
2018-12-10T04:03:31.931Z,69.29
2018-12-10T04:06:33.769Z,68.57
2018-12-10T04:09:36.038Z,68.83
2018-12-10T04:12:38.094Z,68.86
2018-12-10T04:15:40.029Z,69.21
2018-12-10T04:18:41.981Z,69.04
2018-12-10T04:21:44.028Z,68.53
2018-12-10T04:24:46.175Z,68.41
2018-12-10T04:27:48.151Z,68.56
2018-12-10T04:30:50.106Z,68.66
2018-12-10T04:33:51.940Z,68.52
2018-12-10T04:36:53.787Z,69.53
2018-12-10T04:39:55.640Z,69.34
2018-12-10T04:42:57.462Z,69.89
2018-12-10T04:45:59.531Z,69.85
2018-12-10T04:49:01.600Z,69.85
2018-12-10T04:52:03.417Z,69.56
2018-12-10T04:55:05.385Z,69.07
2018-12-10T04:58:07.328Z,68.32
2018-12-10T05:01:09.366Z,69.40
2018-12-10T05:04:11.437Z,69.65
2018-12-10T05:07:13.379Z,69.41
2018-12-10T05:10:15.209Z,69.44
2018-12-10T05:13:17.255Z,69.54
2018-12-10T05:16:19.318Z,68.95
2018-12-10T05:19:21.255Z,69.24
2018-12-10T05:22:23.108Z,69.28
2018-12-10T05:25:25.361Z,68.68
2018-12-10T05:28:27.320Z,68.70
2018-12-10T05:31:29.257Z,68.74
2018-12-10T05:34:31.217Z,68.74
2018-12-10T05:37:32.949Z,69.88
2018-12-10T05:40:34.808Z,70.70
2018-12-10T05:43:36.653Z,73.73
2018-12-10T05:46:38.497Z,74.66
2018-12-10T05:49:40.357Z,74.88
2018-12-10T05:52:42.283Z,75.71
2018-12-10T05:55:44.357Z,76.21
2018-12-10T05:58:46.194Z,75.80
2018-12-10T06:01:48.137Z,75.88
2018-12-10T06:04:49.874Z,76.79
2018-12-10T06:07:51.723Z,76.17
2018-12-10T06:10:54.490Z,75.91
2018-12-10T06:13:56.435Z,76.06
2018-12-10T06:16:58.603Z,76.09
2018-12-10T06:20:00.563Z,76.20
2018-12-10T06:23:02.387Z,75.67
2018-12-10T06:26:04.243Z,74.98
2018-12-10T06:29:06.094Z,75.24
2018-12-10T06:32:07.946Z,76.14
2018-12-10T06:35:09.800Z,75.81
2018-12-10T06:38:11.630Z,75.68
2018-12-10T06:41:13.484Z,75.17
2018-12-10T06:44:16.255Z,75.30
2018-12-10T06:47:17.985Z,75.09
2018-12-10T06:50:19.845Z,75.16
2018-12-10T06:53:21.684Z,74.65
2018-12-10T06:56:23.537Z,74.70
2018-12-10T06:59:25.261Z,74.64
2018-12-10T07:02:27.625Z,74.65
2018-12-10T07:05:29.491Z,73.82
2018-12-10T07:08:31.317Z,73.70
2018-12-10T07:11:33.057Z,73.13
2018-12-10T07:14:34.924Z,73.07
2018-12-10T07:17:36.763Z,72.99
2018-12-10T07:20:38.705Z,72.78
2018-12-10T07:23:40.559Z,72.02
2018-12-10T07:26:42.415Z,71.92
2018-12-10T07:29:44.260Z,72.09
2018-12-10T07:32:46.089Z,72.48
2018-12-10T07:35:47.827Z,72.54
2018-12-10T07:38:49.775Z,72.42
2018-12-10T07:41:51.633Z,72.28
2018-12-10T07:44:53.588Z,72.20
2018-12-10T07:47:55.444Z,72.17
2018-12-10T07:50:57.162Z,72.35
2018-12-10T07:53:59.232Z,71.21
2018-12-10T07:57:01.058Z,70.12
2018-12-10T08:00:03.029Z,70.75
2018-12-10T08:03:04.869Z,70.44
2018-12-10T08:06:06.927Z,70.19
2018-12-10T08:09:08.867Z,69.88
2018-12-10T08:12:10.720Z,68.87
2018-12-10T08:15:12.760Z,67.39
2018-12-10T08:18:14.609Z,67.56
2018-12-10T08:21:16.764Z,66.58
2018-12-10T08:24:18.607Z,66.88
2018-12-10T08:27:20.461Z,66.29
2018-12-10T08:30:22.302Z,66.70
2018-12-10T08:33:24.266Z,65.01
2018-12-10T08:36:26.218Z,64.53
2018-12-10T08:39:28.046Z,64.86
2018-12-10T08:42:30.918Z,64.99
2018-12-10T08:45:32.868Z,64.84
2018-12-10T08:48:34.723Z,65.13
2018-12-10T08:51:36.663Z,65.04
2018-12-10T08:54:38.503Z,65.91
2018-12-10T08:57:40.365Z,65.64
2018-12-10T09:00:42.202Z,65.08
2018-12-10T09:03:44.053Z,65.61
2018-12-10T09:06:45.891Z,65.49
2018-12-10T09:09:47.743Z,64.98
2018-12-10T09:12:49.583Z,64.73
2018-12-10T09:15:51.428Z,64.29
2018-12-10T09:18:53.174Z,64.46
2018-12-10T09:21:55.321Z,63.41
2018-12-10T09:24:57.285Z,63.26
2018-12-10T09:27:59.435Z,63.38
2018-12-10T09:31:01.477Z,62.87
2018-12-10T09:34:03.340Z,61.46
2018-12-10T09:37:05.059Z,60.80
2018-12-10T09:40:06.927Z,60.09
2018-12-10T09:43:08.866Z,60.34
2018-12-10T09:46:10.804Z,59.59
2018-12-10T09:49:12.657Z,58.28
2018-12-10T09:52:14.618Z,58.59
2018-12-10T09:55:16.445Z,57.36
2018-12-10T09:58:18.406Z,57.25
2018-12-10T10:01:20.247Z,57.34
2018-12-10T10:04:22.095Z,57.24
2018-12-10T10:07:28.403Z,56.64
2018-12-10T10:10:27.852Z,56.49
2018-12-10T10:13:29.697Z,57.17
2018-12-10T10:16:31.746Z,57.18
2018-12-10T10:19:33.596Z,57.67
2018-12-10T10:22:35.735Z,57.38
2018-12-10T10:25:37.687Z,58.65
2018-12-10T10:28:39.624Z,61.73
2018-12-10T10:31:41.475Z,62.61
2018-12-10T10:34:43.542Z,62.37
2018-12-10T10:37:45.380Z,62.54
2018-12-10T10:40:47.237Z,63.15
2018-12-10T10:43:49.280Z,63.07
2018-12-10T10:46:51.118Z,63.11
2018-12-10T10:49:53.166Z,62.95
2018-12-10T10:52:55.018Z,62.25
2018-12-10T10:55:56.868Z,62.36
2018-12-10T10:58:58.827Z,62.57
2018-12-10T11:02:02.915Z,62.40
2018-12-10T11:05:04.757Z,62.38
2018-12-10T11:08:06.890Z,62.22
2018-12-10T11:11:08.866Z,61.97
2018-12-10T11:14:10.715Z,61.46
2018-12-10T11:17:12.540Z,61.06
2018-12-10T11:20:14.396Z,60.44
2018-12-10T11:23:16.256Z,60.32
2018-12-10T11:26:18.096Z,61.06
2018-12-10T11:29:20.241Z,61.04
2018-12-10T11:32:22.197Z,60.55
2018-12-10T11:35:24.056Z,60.54
2018-12-10T11:38:26.091Z,57.35
2018-12-10T11:41:27.946Z,54.46
2018-12-10T11:44:29.888Z,53.02
2018-12-10T11:47:31.740Z,50.15
2018-12-10T11:50:33.904Z,50.40
2018-12-10T11:53:35.834Z,52.98
2018-12-10T11:56:37.782Z,55.96
2018-12-10T11:59:39.845Z,58.22
2018-12-10T12:02:41.672Z,58.98
2018-12-10T12:05:43.724Z,60.08
2018-12-10T12:08:45.675Z,59.39
2018-12-10T12:11:47.638Z,56.48
2018-12-10T12:14:49.367Z,53.10
2018-12-10T12:17:51.316Z,52.53
2018-12-10T12:20:53.367Z,52.03
2018-12-10T12:23:55.310Z,50.77
2018-12-10T12:26:57.280Z,49.61
2018-12-10T12:29:59.218Z,47.88
2018-12-10T12:33:01.057Z,46.42
2018-12-10T12:36:02.917Z,45.24
2018-12-10T12:39:05.076Z,44.65
2018-12-10T12:42:08.248Z,44.60
2018-12-10T12:45:11.216Z,45.07
2018-12-10T12:48:20.015Z,47.03
2018-12-10T12:51:22.475Z,48.99
2018-12-10T12:54:24.429Z,49.10
2018-12-10T12:57:26.389Z,49.02
2018-12-10T13:00:28.328Z,50.26
2018-12-10T13:03:30.490Z,50.89
2018-12-10T13:06:32.436Z,52.47
2018-12-10T13:09:34.361Z,53.62
2018-12-10T13:12:36.215Z,54.69
2018-12-10T13:15:38.169Z,53.69
2018-12-10T13:18:39.907Z,50.53
2018-12-10T13:21:41.796Z,48.09
2018-12-10T13:24:43.729Z,45.87
2018-12-10T13:27:45.785Z,44.76
2018-12-10T13:30:48.001Z,45.09
2018-12-10T13:33:50.068Z,44.82
2018-12-10T13:39:53.975Z,45.13
2018-12-10T13:42:55.821Z,45.27
2018-12-10T13:45:57.713Z,45.94
2018-12-10T13:48:59.605Z,46.17
2018-12-10T13:52:01.666Z,46.26
2018-12-10T13:55:04.235Z,48.81
2018-12-10T13:58:06.175Z,51.10
2018-12-10T14:01:08.225Z,51.80
2018-12-10T14:04:11.602Z,52.98
2018-12-10T14:07:13.792Z,54.33
2018-12-10T14:10:16.016Z,54.70
2018-12-10T14:13:17.859Z,55.36
2018-12-10T14:16:19.712Z,56.19
2018-12-10T14:19:21.573Z,56.93
2018-12-10T14:22:23.391Z,57.71
2018-12-10T14:25:25.239Z,57.90
2018-12-10T14:28:27.112Z,58.56
2018-12-10T14:31:29.031Z,58.93
2018-12-10T14:34:30.992Z,59.53
2018-12-10T14:37:32.830Z,60.14
2018-12-10T14:40:36.032Z,60.07
2018-12-10T14:43:38.072Z,60.25
2018-12-10T14:46:40.022Z,60.64
2018-12-10T14:49:41.852Z,61.27
2018-12-10T14:52:44.948Z,60.90
2018-12-10T14:55:46.885Z,61.01
2018-12-10T14:58:48.940Z,60.89
2018-12-10T15:01:50.886Z,60.92
2018-12-10T15:04:52.836Z,61.36
2018-12-10T15:07:54.782Z,61.45
2018-12-10T15:10:56.641Z,61.89
2018-12-10T15:13:58.363Z,62.49
2018-12-10T15:17:00.325Z,62.42
2018-12-10T15:20:02.483Z,62.41
2018-12-10T15:23:04.321Z,62.09
2018-12-10T15:26:06.175Z,62.35
2018-12-10T15:29:08.135Z,62.05
2018-12-10T15:32:10.173Z,62.29
2018-12-10T15:35:12.118Z,62.03
2018-12-10T15:38:14.074Z,62.08
2018-12-10T15:41:15.922Z,62.46
2018-12-10T15:44:17.748Z,62.08
2018-12-10T15:47:19.709Z,62.81
2018-12-10T15:50:21.769Z,62.49
2018-12-10T15:53:23.924Z,63.41
2018-12-10T15:56:25.979Z,62.86
2018-12-10T15:59:28.015Z,63.50
2018-12-10T16:02:29.977Z,63.16
2018-12-10T16:05:31.800Z,62.88
2018-12-10T16:08:33.876Z,63.20
2018-12-10T16:11:36.238Z,62.82
2018-12-10T16:14:38.579Z,63.10
2018-12-10T16:17:40.537Z,63.30
2018-12-10T16:20:42.358Z,63.64
2018-12-10T16:23:44.110Z,63.47
2018-12-10T16:26:45.960Z,63.69
2018-12-10T16:29:47.937Z,63.71
2018-12-10T16:32:50.183Z,63.56
2018-12-10T16:35:52.514Z,63.27
2018-12-10T16:38:54.382Z,63.40
2018-12-10T16:41:56.223Z,63.05
2018-12-10T16:44:57.960Z,63.12
2018-12-10T16:47:59.922Z,63.28
2018-12-10T16:51:01.951Z,63.26
2018-12-10T16:54:03.800Z,63.25
2018-12-10T16:57:05.752Z,63.08
2018-12-10T17:00:09.965Z,63.24
2018-12-10T17:03:11.895Z,63.50
2018-12-10T17:06:13.740Z,63.20
2018-12-10T17:09:16.211Z,63.59
2018-12-10T17:12:18.381Z,63.57
2018-12-10T17:15:21.138Z,63.46
2018-12-10T17:18:22.970Z,63.50
2018-12-10T17:21:24.933Z,63.75
2018-12-10T17:24:26.764Z,63.42
2018-12-10T17:27:28.626Z,63.80
2018-12-10T17:30:30.561Z,64.17
2018-12-10T17:33:32.626Z,65.19
2018-12-10T17:36:34.567Z,64.74
2018-12-10T17:39:36.726Z,64.92
2018-12-10T18:30:06.504Z,67.44
2018-12-10T18:33:08.507Z,67.74
2018-12-10T18:36:10.519Z,68.02
2018-12-10T18:39:12.300Z,68.33
2018-12-10T18:42:14.141Z,69.36
2018-12-10T18:45:16.618Z,69.80
2018-12-10T18:48:18.500Z,69.80
2018-12-10T18:51:20.426Z,71.01
2018-12-10T18:54:23.099Z,70.27
2018-12-10T18:57:24.941Z,70.79
2018-12-10T19:00:26.875Z,70.70
2018-12-10T19:03:28.613Z,70.67
2018-12-10T19:06:31.424Z,71.17
2018-12-10T19:09:33.250Z,70.81
2018-12-10T19:12:35.643Z,70.86
2018-12-10T19:15:37.519Z,71.10
2018-12-10T19:18:39.497Z,70.93
2018-12-10T19:21:41.384Z,70.93
2018-12-10T19:24:43.289Z,70.89
2018-12-10T19:27:45.403Z,70.65
2018-12-10T19:30:47.289Z,70.99
2018-12-10T19:33:49.060Z,70.74
2018-12-10T19:36:51.903Z,70.18
2018-12-10T19:39:53.666Z,70.23
2018-12-10T19:42:55.435Z,69.75
2018-12-10T19:45:57.560Z,69.90
2018-12-10T19:48:59.260Z,69.74
2018-12-10T19:52:01.099Z,69.50
2018-12-10T19:55:02.842Z,69.50
2018-12-10T19:58:05.691Z,69.09
2018-12-10T20:01:07.551Z,69.47
2018-12-10T20:04:13.361Z,69.01
2018-12-10T20:07:16.111Z,69.25
2018-12-10T20:10:18.829Z,69.23
2018-12-10T20:13:20.987Z,69.15
2018-12-10T20:16:22.844Z,68.90
2018-12-10T20:19:25.395Z,69.31
2018-12-10T20:22:28.447Z,68.73
2018-12-10T20:25:30.446Z,68.16
2018-12-10T20:28:32.279Z,68.06
2018-12-10T20:31:34.234Z,68.09
2018-12-10T20:34:36.143Z,68.40
2018-12-10T20:37:38.038Z,68.69
2018-12-10T20:40:40.691Z,68.25
2018-12-10T20:43:42.599Z,68.95
2018-12-10T20:46:44.398Z,69.19
2018-12-10T20:49:46.190Z,68.61
2018-12-10T20:52:49.957Z,68.86
2018-12-10T20:55:53.100Z,68.69
2018-12-10T20:58:54.781Z,68.34
2018-12-10T21:01:56.624Z,67.80
2018-12-10T21:04:58.601Z,68.08
2018-12-10T21:08:00.449Z,67.52
2018-12-10T21:11:02.188Z,67.51
2018-12-10T21:14:03.908Z,67.13
2018-12-10T21:17:05.669Z,66.69
2018-12-10T21:20:07.637Z,67.06
2018-12-10T21:23:09.465Z,67.44
2018-12-10T21:26:11.363Z,67.15
2018-12-10T21:29:14.247Z,67.22
2018-12-10T21:32:15.987Z,66.65
2018-12-10T21:35:17.763Z,66.42
2018-12-10T21:38:19.562Z,66.94
2018-12-10T21:41:21.338Z,66.79
2018-12-10T21:44:23.108Z,67.06
2018-12-10T21:47:24.888Z,66.89
2018-12-10T21:50:26.698Z,67.00
2018-12-10T21:53:28.619Z,66.82
2018-12-10T21:56:30.423Z,66.81
2018-12-10T21:59:32.158Z,66.96
2018-12-10T22:02:33.897Z,66.67
2018-12-10T22:05:35.610Z,66.64
2018-12-10T22:08:37.376Z,66.62
2018-12-10T22:11:39.064Z,66.52
2018-12-10T22:14:40.833Z,66.42
2018-12-10T22:17:42.509Z,66.30
2018-12-10T22:20:44.237Z,66.71
2018-12-10T22:23:45.895Z,66.27
2018-12-10T22:26:47.755Z,66.70
2018-12-10T22:29:49.522Z,66.33
2018-12-10T22:32:51.436Z,66.48
2018-12-10T22:35:53.130Z,66.18
2018-12-10T22:38:54.959Z,66.91
2018-12-10T22:41:56.910Z,67.24
2018-12-10T22:44:58.698Z,67.32
2018-12-10T22:48:00.450Z,67.69
2018-12-10T22:51:02.268Z,67.75
2018-12-10T22:54:04.098Z,67.31
2018-12-10T22:57:07.077Z,67.42
2018-12-10T23:00:08.916Z,67.00
2018-12-10T23:03:12.740Z,67.06
2018-12-10T23:06:14.504Z,66.79
2018-12-10T23:09:16.218Z,66.85
2018-12-10T23:12:17.923Z,66.76
2018-12-10T23:15:19.665Z,66.79
2018-12-10T23:18:21.406Z,66.64
2018-12-10T23:21:23.197Z,66.62
2018-12-10T23:24:24.937Z,66.39
2018-12-10T23:27:26.699Z,66.75
2018-12-10T23:30:28.444Z,66.73
2018-12-10T23:33:30.209Z,66.65
2018-12-10T23:36:31.987Z,66.41
2018-12-10T23:39:33.666Z,66.77
2018-12-10T23:42:35.406Z,67.10
2018-12-10T23:45:37.178Z,66.43
2018-12-10T23:48:39.252Z,66.68
2018-12-10T23:51:41.031Z,66.77
2018-12-10T23:54:42.733Z,67.24
2018-12-10T23:57:44.507Z,67.24
